Blountstown, Florida
Current Conditions -  °F | °C
As of 10:53 AM on Saturday 25 Oct 2014 (Local Time) from KMAI Reporting Station
Clear Clear  
Wind Chill: 21°   Ceiling: Unl
Heat Index: 21°   Visibility: 10mi
Dew Point:   Wind: 3mph
Humidity: 47%   Direction: NA
Pressure: 30.07"   Gusts: NA
Location:  30.44°N, 85.05°W
Report Text: KMAI 251553Z AUTO VRB03KT 10SM CLR 21/09 A3007 RMK AO2 SLP181 T02110094 $
Loading
Personal Weather Stations






























Interactive Weather Map New forecast layout! Learn more

10-Day Weather Forecast

Advertisements
Track Severe Weather on mobile